Terminal Aerodrome Forecast
Issued by NWS Chicago, IL

Home | Current Version | Previous Version | Graphics & Text | Print | Product List | Glossary On
Versions: 1 2 3 4 5 6 7 8 9 10 11 12 13 14 15 16 17 18 19 20 21 22 23 24 25 26 27 28 29 30 31 32 33 34 35 36 37 38 39
000
FTUS43 KLOT 240200 AAA
TAFRFD
TAF AMD
KRFD 240245Z 2403/2424 17006KT 2SM -RADZ BR OVC003
     FM240600 20008KT 1SM -DZ BR OVC002
     FM241200 24015G22KT 3SM -RA BR SCT007 OVC015
     FM241500 27020G30KT 1SM -RASN BKN007 OVC012
     FM241800 26021G32KT 2SM -SN SCT007 OVC015=

USA.gov is the U.S. government's official web portal to all federal, state and local government web resources and services.